createdAt,value
2022-08-04T00:00:37.740Z,0.00
2022-08-04T00:01:39.577Z,0.00
2022-08-04T00:02:37.629Z,0.00
2022-08-04T00:03:38.260Z,0.00
2022-08-04T00:04:37.612Z,0.00
2022-08-04T00:05:37.601Z,0.00
2022-08-04T00:06:38.201Z,0.00
2022-08-04T00:07:43.995Z,0.00
2022-08-04T00:08:38.523Z,0.00
2022-08-04T00:09:37.503Z,0.00
2022-08-04T00:10:37.474Z,0.00
2022-08-04T00:11:37.526Z,0.00
2022-08-04T00:12:39.701Z,0.00
2022-08-04T00:13:37.473Z,0.00
2022-08-04T00:14:40.394Z,0.00
2022-08-04T00:15:38.866Z,0.00
2022-08-04T00:16:38.694Z,0.00
2022-08-04T00:17:37.465Z,0.00
2022-08-04T00:18:37.416Z,0.00
2022-08-04T00:19:37.391Z,0.00
2022-08-04T00:20:37.376Z,0.00
2022-08-04T00:21:37.415Z,0.00
2022-08-04T00:22:37.350Z,0.00
2022-08-04T00:24:11.848Z,0.00
2022-08-04T00:24:38.355Z,0.00
2022-08-04T00:25:37.316Z,0.00
2022-08-04T00:26:37.990Z,0.00
2022-08-04T00:27:37.979Z,0.00
2022-08-04T00:28:37.970Z,0.00
2022-08-04T00:29:37.941Z,0.00
2022-08-04T00:30:37.951Z,0.00
2022-08-04T00:31:56.038Z,0.00
2022-08-04T00:32:40.211Z,0.00
2022-08-04T00:33:37.911Z,0.00
2022-08-04T00:34:37.280Z,0.00
2022-08-04T00:35:37.265Z,0.00
2022-08-04T00:36:37.883Z,0.00
2022-08-04T00:37:37.212Z,0.00
2022-08-04T00:38:37.216Z,0.00
2022-08-04T00:39:37.271Z,0.00
2022-08-04T00:40:37.173Z,0.00
2022-08-04T00:41:39.706Z,0.00
2022-08-04T00:42:38.162Z,0.00
2022-08-04T00:43:38.143Z,0.00
2022-08-04T00:44:37.114Z,0.00
2022-08-04T00:46:15.325Z,0.00
2022-08-04T00:46:40.067Z,0.00
2022-08-04T00:47:37.086Z,0.00
2022-08-04T00:48:37.075Z,0.00
2022-08-04T00:49:39.023Z,0.00
2022-08-04T00:50:37.739Z,0.00
2022-08-04T00:51:37.046Z,0.00
2022-08-04T00:52:37.254Z,0.00
2022-08-04T00:53:37.711Z,0.00
2022-08-04T00:54:36.998Z,0.00
2022-08-04T00:55:37.687Z,0.00
2022-08-04T00:56:37.667Z,0.00
2022-08-04T00:57:37.829Z,0.00
2022-08-04T00:58:37.639Z,0.00
2022-08-04T00:59:37.638Z,0.00
2022-08-04T01:00:37.640Z,0.00
2022-08-04T01:01:36.973Z,0.00
2022-08-04T01:02:36.936Z,0.00
2022-08-04T01:03:38.365Z,0.00
2022-08-04T01:04:36.903Z,0.00
2022-08-04T01:05:37.869Z,0.00
2022-08-04T01:06:36.901Z,0.00
2022-08-04T01:07:36.858Z,0.00
2022-08-04T01:08:36.855Z,0.00
2022-08-04T01:09:36.973Z,0.00
2022-08-04T01:10:36.823Z,0.00
2022-08-04T01:11:57.586Z,0.00
2022-08-04T01:12:37.834Z,0.00
2022-08-04T01:13:36.794Z,0.00
2022-08-04T01:14:36.811Z,0.00
2022-08-04T01:15:53.981Z,0.00
2022-08-04T01:16:38.474Z,0.00
2022-08-04T01:17:37.454Z,0.00
2022-08-04T01:18:36.756Z,0.00
2022-08-04T01:19:37.419Z,0.00
2022-08-04T01:20:37.415Z,0.00
2022-08-04T01:21:36.770Z,0.00
2022-08-04T01:22:38.681Z,0.00
2022-08-04T01:23:36.718Z,0.00
2022-08-04T01:24:37.369Z,0.00
2022-08-04T01:25:38.489Z,0.00
2022-08-04T01:26:42.168Z,0.00
2022-08-04T01:27:40.106Z,0.00
2022-08-04T01:28:42.429Z,0.00
2022-08-04T01:29:44.088Z,0.00
2022-08-04T01:30:39.584Z,0.00
2022-08-04T01:31:37.290Z,0.00
2022-08-04T01:32:36.665Z,0.00
2022-08-04T01:34:03.256Z,0.00
2022-08-04T01:34:38.261Z,0.00
2022-08-04T01:35:48.245Z,0.00
2022-08-04T01:36:37.991Z,0.00
2022-08-04T01:37:38.514Z,0.00
2022-08-04T01:38:36.523Z,0.00
2022-08-04T01:39:37.243Z,0.00
2022-08-04T01:40:36.504Z,0.00
2022-08-04T01:41:37.183Z,0.00
2022-08-04T01:42:37.181Z,0.00
2022-08-04T01:43:36.529Z,0.00
2022-08-04T01:44:36.485Z,0.00
2022-08-04T01:45:36.465Z,0.00
2022-08-04T01:46:36.464Z,0.00
2022-08-04T01:47:37.129Z,0.00
2022-08-04T01:48:37.115Z,0.00
2022-08-04T01:49:40.181Z,0.00
2022-08-04T01:50:36.448Z,0.00
2022-08-04T01:51:36.409Z,0.00
2022-08-04T01:52:36.439Z,0.00
2022-08-04T01:53:37.057Z,0.00
2022-08-04T01:54:36.357Z,0.00
2022-08-04T01:55:55.031Z,0.00
2022-08-04T01:56:37.358Z,0.00
2022-08-04T01:57:39.331Z,0.00
2022-08-04T01:58:36.339Z,0.00
2022-08-04T01:59:36.377Z,0.00
2022-08-04T02:00:36.981Z,0.00
2022-08-04T02:01:37.089Z,0.00
2022-08-04T02:02:36.399Z,0.00
2022-08-04T02:04:18.548Z,0.00
2022-08-04T02:04:38.701Z,0.00
2022-08-04T02:06:02.478Z,0.00
2022-08-04T02:06:37.270Z,0.00
2022-08-04T02:07:36.219Z,0.00
2022-08-04T02:08:36.317Z,0.00
2022-08-04T02:09:36.273Z,0.00
2022-08-04T02:10:37.183Z,0.00
2022-08-04T02:11:36.866Z,0.00
2022-08-04T02:12:36.867Z,0.00
2022-08-04T02:13:36.165Z,0.00
2022-08-04T02:14:36.153Z,0.00
2022-08-04T02:15:36.817Z,0.00
2022-08-04T02:16:36.567Z,0.00
2022-08-04T02:17:38.031Z,0.00
2022-08-04T02:18:36.868Z,0.00
2022-08-04T02:19:36.213Z,0.00
2022-08-04T02:20:36.778Z,0.00
2022-08-04T02:21:42.403Z,0.00
2022-08-04T02:22:39.007Z,0.00
2022-08-04T02:23:36.059Z,0.00
2022-08-04T02:24:36.718Z,0.00
2022-08-04T02:25:36.058Z,0.00
2022-08-04T02:26:36.708Z,0.00
2022-08-04T02:27:59.791Z,0.00
2022-08-04T02:28:38.936Z,0.00
2022-08-04T02:29:36.679Z,0.00
2022-08-04T02:30:37.910Z,0.00
2022-08-04T02:31:35.994Z,0.00
2022-08-04T02:32:35.975Z,0.00
2022-08-04T02:33:36.632Z,0.00
2022-08-04T02:34:36.622Z,0.00
2022-08-04T02:35:35.946Z,0.00
2022-08-04T02:36:35.921Z,0.00
2022-08-04T02:37:36.592Z,0.00
2022-08-04T02:38:36.572Z,0.00
2022-08-04T02:39:47.814Z,0.00
2022-08-04T02:40:37.556Z,0.00
2022-08-04T02:41:36.545Z,0.00
2022-08-04T02:42:36.535Z,0.00
2022-08-04T02:43:51.330Z,0.00
2022-08-04T02:44:37.454Z,0.00
2022-08-04T02:45:36.503Z,0.00
2022-08-04T02:46:35.888Z,0.00
2022-08-04T02:48:23.602Z,0.00
2022-08-04T02:48:37.755Z,0.00
2022-08-04T02:49:35.787Z,0.00
2022-08-04T02:50:35.759Z,0.00
2022-08-04T02:51:35.898Z,0.00
2022-08-04T02:52:38.228Z,0.00
2022-08-04T02:53:35.828Z,0.00
2022-08-04T02:54:35.839Z,0.00
2022-08-04T02:55:36.400Z,0.00
2022-08-04T02:56:37.416Z,0.00
2022-08-04T02:57:36.379Z,0.00
2022-08-04T02:58:37.630Z,0.00
2022-08-04T02:59:36.577Z,0.00
2022-08-04T03:00:35.669Z,0.00
2022-08-04T03:01:36.364Z,0.00
2022-08-04T03:02:36.112Z,0.00
2022-08-04T03:03:36.640Z,0.00
2022-08-04T03:04:36.490Z,0.00
2022-08-04T03:05:57.510Z,0.00
2022-08-04T03:06:38.523Z,0.00
2022-08-04T03:07:36.756Z,0.00
2022-08-04T03:08:36.569Z,0.00
2022-08-04T03:09:38.963Z,0.00
2022-08-04T03:10:36.243Z,0.00
2022-08-04T03:11:35.635Z,0.00
2022-08-04T03:12:36.222Z,0.00
2022-08-04T03:13:36.294Z,0.00
2022-08-04T03:14:35.568Z,0.00
2022-08-04T03:15:36.196Z,0.00
2022-08-04T03:16:38.460Z,0.00
2022-08-04T03:17:36.188Z,0.00
2022-08-04T03:18:38.406Z,0.00
2022-08-04T03:19:36.136Z,0.00
2022-08-04T03:20:36.144Z,0.00
2022-08-04T03:21:35.471Z,0.00
2022-08-04T03:22:41.942Z,0.00
2022-08-04T03:23:36.438Z,0.00
2022-08-04T03:24:36.109Z,0.00
2022-08-04T03:25:35.438Z,0.00
2022-08-04T03:26:38.329Z,0.00
2022-08-04T03:27:36.060Z,0.00
2022-08-04T03:28:35.450Z,0.00
2022-08-04T03:29:37.336Z,0.00
2022-08-04T03:30:36.082Z,0.00
2022-08-04T03:31:36.001Z,0.00
2022-08-04T03:32:36.011Z,0.00
2022-08-04T03:33:37.771Z,0.00
2022-08-04T03:34:35.985Z,0.00
2022-08-04T03:35:35.301Z,0.00
2022-08-04T03:36:35.962Z,0.00
2022-08-04T03:37:35.455Z,0.00
2022-08-04T03:38:35.263Z,0.00
2022-08-04T03:39:35.987Z,0.00
2022-08-04T03:40:35.233Z,5.62
2022-08-04T03:41:51.608Z,5.62
2022-08-04T03:42:36.872Z,5.62
2022-08-04T03:43:57.784Z,5.62
2022-08-04T03:44:37.044Z,5.62
2022-08-04T03:45:35.875Z,5.62
2022-08-04T03:46:35.236Z,5.62
2022-08-04T03:47:35.844Z,5.62
2022-08-04T03:48:37.576Z,0.00
2022-08-04T03:49:36.561Z,0.00
2022-08-04T03:50:38.321Z,5.62
2022-08-04T03:51:36.585Z,5.62
2022-08-04T03:52:36.647Z,5.62
2022-08-04T03:53:35.157Z,5.62
2022-08-04T03:54:36.078Z,5.62
2022-08-04T03:55:35.141Z,5.62
2022-08-04T03:56:35.058Z,5.62
2022-08-04T03:57:35.218Z,5.62
2022-08-04T03:58:35.239Z,5.62
2022-08-04T03:59:37.046Z,5.62
2022-08-04T04:00:36.033Z,5.62
2022-08-04T04:02:01.071Z,11.25
2022-08-04T04:02:37.999Z,11.25
2022-08-04T04:03:35.702Z,11.25
2022-08-04T04:04:35.672Z,11.25
2022-08-04T04:05:58.716Z,11.25
2022-08-04T04:06:38.501Z,16.88
2022-08-04T04:07:36.578Z,16.88
2022-08-04T04:08:35.620Z,16.88
2022-08-04T04:09:56.803Z,16.88
2022-08-04T04:10:36.593Z,16.88
2022-08-04T04:11:35.593Z,22.50
2022-08-04T04:12:35.940Z,22.50
2022-08-04T04:13:34.894Z,22.50
2022-08-04T04:14:35.805Z,22.50
2022-08-04T04:15:35.554Z,28.12
2022-08-04T04:16:35.514Z,28.12
2022-08-04T04:17:36.315Z,33.75
2022-08-04T04:18:35.795Z,33.75
2022-08-04T04:19:34.825Z,39.38
2022-08-04T04:20:34.844Z,39.38
2022-08-04T04:21:34.841Z,39.38
2022-08-04T04:22:38.427Z,45.00
2022-08-04T04:23:35.718Z,45.00
2022-08-04T04:24:35.438Z,50.62
2022-08-04T04:25:35.430Z,50.62
2022-08-04T04:26:34.759Z,56.25
2022-08-04T04:27:34.760Z,56.25
2022-08-04T04:28:46.124Z,56.25
2022-08-04T04:29:36.394Z,61.88
2022-08-04T04:30:35.371Z,61.88
2022-08-04T04:31:35.362Z,67.50
2022-08-04T04:32:36.128Z,67.50
2022-08-04T04:33:35.340Z,67.50
2022-08-04T04:34:35.643Z,67.50
2022-08-04T04:35:35.330Z,67.50
2022-08-04T04:36:35.329Z,67.50
2022-08-04T04:37:35.322Z,73.12
2022-08-04T04:38:35.295Z,78.75
2022-08-04T04:39:35.322Z,78.75
2022-08-04T04:40:35.273Z,78.75
2022-08-04T04:41:35.267Z,78.75
2022-08-04T04:42:35.254Z,78.75
2022-08-04T04:43:51.732Z,78.75
2022-08-04T04:44:35.576Z,84.38
2022-08-04T04:45:35.225Z,84.38
2022-08-04T04:46:35.207Z,90.00
2022-08-04T04:48:07.144Z,90.00
2022-08-04T04:48:37.425Z,95.62
2022-08-04T04:49:35.270Z,95.62
2022-08-04T04:50:36.939Z,101.25
2022-08-04T04:51:35.170Z,101.25
2022-08-04T04:52:35.443Z,106.88
2022-08-04T04:53:35.144Z,101.25
2022-08-04T04:54:34.450Z,101.25
2022-08-04T04:55:35.115Z,101.25
2022-08-04T04:56:34.467Z,101.25
2022-08-04T04:57:54.287Z,106.88
2022-08-04T04:58:36.320Z,106.88
2022-08-04T04:59:35.069Z,106.88
2022-08-04T05:00:35.070Z,112.50
2022-08-04T05:01:35.035Z,112.50
2022-08-04T05:02:35.034Z,118.12
2022-08-04T05:03:35.034Z,123.75
2022-08-04T05:04:35.018Z,129.38
2022-08-04T05:05:35.019Z,140.62
2022-08-04T05:06:35.000Z,151.88
2022-08-04T05:07:34.343Z,168.75
2022-08-04T05:08:45.289Z,174.38
2022-08-04T05:09:35.291Z,185.62
2022-08-04T05:10:34.954Z,196.88
2022-08-04T05:11:34.946Z,185.62
2022-08-04T05:14:33.017Z,174.38
2022-08-04T05:14:37.037Z,174.38
2022-08-04T05:14:41.556Z,180.00
2022-08-04T05:15:34.214Z,191.25
2022-08-04T05:16:34.887Z,208.12
2022-08-04T05:17:34.218Z,208.12
2022-08-04T05:18:34.209Z,213.75
2022-08-04T05:19:34.857Z,225.00
2022-08-04T05:20:34.167Z,230.62
2022-08-04T05:21:34.837Z,225.00
2022-08-04T05:22:34.840Z,219.38
2022-08-04T05:23:34.828Z,230.62
2022-08-04T05:24:35.034Z,236.25
2022-08-04T05:25:34.787Z,202.50
2022-08-04T05:26:34.778Z,196.88
2022-08-04T05:27:39.425Z,202.50
2022-08-04T05:28:35.764Z,208.12
2022-08-04T05:29:34.079Z,247.50
2022-08-04T05:30:34.083Z,241.88
2022-08-04T05:31:34.734Z,270.00
2022-08-04T05:32:34.719Z,298.12
2022-08-04T05:33:34.722Z,292.50
2022-08-04T05:34:34.700Z,298.12
2022-08-04T05:35:47.847Z,320.62
2022-08-04T05:36:41.427Z,320.62
2022-08-04T05:37:36.402Z,331.88
2022-08-04T05:38:33.984Z,354.38
2022-08-04T05:39:34.783Z,331.88
2022-08-04T05:40:33.964Z,343.12
2022-08-04T05:41:44.732Z,354.38
2022-08-04T05:42:35.895Z,331.88
2022-08-04T05:43:33.915Z,506.25
2022-08-04T05:44:34.601Z,652.50
2022-08-04T05:45:38.991Z,478.12
2022-08-04T05:46:35.566Z,410.62
2022-08-04T05:47:35.331Z,337.50
2022-08-04T05:48:34.529Z,360.00
2022-08-04T05:49:34.537Z,399.38
2022-08-04T05:50:34.536Z,466.88
2022-08-04T05:51:34.516Z,810.00
2022-08-04T05:52:34.498Z,703.12
2022-08-04T05:53:34.488Z,534.38
2022-08-04T05:54:34.481Z,540.00
2022-08-04T05:55:48.994Z,433.12
2022-08-04T05:56:35.717Z,444.38
2022-08-04T05:57:34.449Z,635.62
2022-08-04T05:58:34.442Z,1018.12
2022-08-04T05:59:34.440Z,939.38
2022-08-04T06:00:41.160Z,793.12
2022-08-04T06:01:56.038Z,652.50
2022-08-04T06:02:34.731Z,877.50
2022-08-04T06:03:34.389Z,579.38
2022-08-04T06:04:33.702Z,675.00
2022-08-04T06:05:34.380Z,810.00
2022-08-04T06:06:34.354Z,596.25
2022-08-04T06:07:34.352Z,556.88
2022-08-04T06:08:34.334Z,545.62
2022-08-04T06:09:33.664Z,585.00
2022-08-04T06:10:34.329Z,573.75
2022-08-04T06:11:59.141Z,646.88
2022-08-04T06:12:36.102Z,663.75
2022-08-04T06:13:47.678Z,905.62
2022-08-04T06:14:37.039Z,832.50
2022-08-04T06:15:33.578Z,1012.50
2022-08-04T06:16:34.257Z,995.62
2022-08-04T06:18:33.429Z,984.38
2022-08-04T06:19:59.190Z,866.25
2022-08-04T06:20:01.810Z,759.38
2022-08-04T06:20:35.016Z,871.88
2022-08-04T06:21:33.550Z,922.50
2022-08-04T06:22:34.201Z,866.25
2022-08-04T06:23:34.180Z,855.00
2022-08-04T06:24:36.471Z,703.12
2022-08-04T06:25:34.161Z,613.12
2022-08-04T06:26:35.442Z,804.38
2022-08-04T06:27:34.141Z,916.88
2022-08-04T06:28:35.286Z,1102.50
2022-08-04T06:29:34.871Z,1237.50
2022-08-04T06:30:34.180Z,877.50
2022-08-04T06:32:28.760Z,1288.12
2022-08-04T06:32:41.258Z,1310.62
2022-08-04T06:33:55.054Z,995.62
2022-08-04T06:34:35.829Z,1248.75
2022-08-04T06:35:33.380Z,1147.50
2022-08-04T06:36:34.048Z,1316.25
2022-08-04T06:37:42.741Z,1265.62
2022-08-04T06:38:35.797Z,1321.88
2022-08-04T06:39:33.411Z,1012.50
2022-08-04T06:40:34.983Z,1203.75
2022-08-04T06:41:33.996Z,888.75
2022-08-04T06:42:33.336Z,770.62
2022-08-04T06:43:33.975Z,742.50
2022-08-04T06:44:34.287Z,798.75
2022-08-04T06:45:33.966Z,798.75
2022-08-04T06:46:33.939Z,697.50
2022-08-04T06:47:33.930Z,641.25
2022-08-04T06:48:33.981Z,838.12
2022-08-04T06:49:55.227Z,849.38
2022-08-04T06:51:32.231Z,911.25
2022-08-04T06:51:45.117Z,905.62
2022-08-04T06:52:34.193Z,871.88
2022-08-04T06:53:33.874Z,916.88
2022-08-04T06:54:33.215Z,888.75
2022-08-04T06:55:33.852Z,888.75
2022-08-04T06:56:33.850Z,826.88
2022-08-04T06:57:33.823Z,1001.25
2022-08-04T06:58:33.171Z,1254.38
2022-08-04T06:59:33.804Z,1395.00
2022-08-04T07:00:33.788Z,1490.62
2022-08-04T07:01:33.809Z,1366.88
2022-08-04T07:02:33.093Z,1321.88
2022-08-04T07:03:33.087Z,1715.62
2022-08-04T07:04:33.146Z,1850.62
2022-08-04T07:05:33.076Z,1963.12
2022-08-04T07:06:33.808Z,1710.00
2022-08-04T07:07:36.666Z,1406.25
2022-08-04T07:08:34.046Z,1974.38
2022-08-04T07:09:33.723Z,1546.88
2022-08-04T07:10:34.950Z,1389.38
2022-08-04T07:11:39.188Z,2025.00
2022-08-04T07:12:35.990Z,1980.00
2022-08-04T07:13:33.251Z,1029.38
2022-08-04T07:14:33.660Z,1749.38
2022-08-04T07:15:32.973Z,1845.00
2022-08-04T07:16:33.641Z,1698.75
2022-08-04T07:17:34.751Z,1586.25
2022-08-04T07:18:33.611Z,1271.25
2022-08-04T07:19:33.602Z,1721.25
2022-08-04T07:20:36.219Z,1501.88
2022-08-04T07:21:32.914Z,1890.00
2022-08-04T07:22:33.574Z,1029.38
2022-08-04T07:23:33.606Z,1755.00
2022-08-04T07:24:34.425Z,1693.12
2022-08-04T07:25:59.888Z,1631.25
2022-08-04T07:26:35.776Z,1738.12
2022-08-04T07:27:47.719Z,1850.62
2022-08-04T07:28:35.766Z,1968.75
2022-08-04T07:29:32.888Z,2379.38
2022-08-04T07:30:33.477Z,2441.25
2022-08-04T07:31:34.572Z,2508.75
2022-08-04T07:32:33.469Z,2520.00
2022-08-04T07:33:33.464Z,2497.50
2022-08-04T07:34:33.459Z,2396.25
2022-08-04T07:36:05.694Z,2379.38
2022-08-04T07:36:41.971Z,2475.00
2022-08-04T07:37:39.038Z,2205.00
2022-08-04T07:38:37.807Z,2165.62
2022-08-04T07:39:47.691Z,1608.75
2022-08-04T07:40:33.702Z,871.88
2022-08-04T07:41:36.166Z,596.25
2022-08-04T07:42:32.729Z,1057.50
2022-08-04T07:43:32.705Z,669.38
2022-08-04T07:44:32.700Z,2323.12
2022-08-04T07:45:33.334Z,2660.62
2022-08-04T07:46:33.338Z,2300.62
2022-08-04T07:47:33.332Z,2441.25
2022-08-04T07:48:32.674Z,1158.75
2022-08-04T07:49:55.502Z,2874.38
2022-08-04T07:50:34.284Z,2401.88
2022-08-04T07:51:32.637Z,2266.88
2022-08-04T07:52:34.862Z,2295.00
2022-08-04T07:53:54.144Z,2362.50
2022-08-04T07:54:33.560Z,2289.38
2022-08-04T07:55:33.241Z,2092.50
2022-08-04T07:56:33.233Z,1614.38
2022-08-04T07:57:40.181Z,2733.75
2022-08-04T07:58:34.211Z,2311.88
2022-08-04T07:59:33.210Z,2098.12
2022-08-04T08:00:33.190Z,3183.75
2022-08-04T08:01:32.490Z,3375.00
2022-08-04T08:02:32.490Z,3020.62
2022-08-04T08:03:33.224Z,3043.12
2022-08-04T08:04:33.141Z,3386.25
2022-08-04T08:05:32.501Z,2565.00
2022-08-04T08:06:36.443Z,2964.38
2022-08-04T08:07:34.376Z,3346.88
2022-08-04T08:08:33.853Z,3223.12
2022-08-04T08:09:33.095Z,3301.88
2022-08-04T08:10:33.118Z,2823.75
2022-08-04T08:12:36.714Z,2475.00
2022-08-04T08:12:37.593Z,2638.12
2022-08-04T08:13:33.404Z,2182.50
2022-08-04T08:14:33.352Z,2092.50
2022-08-04T08:15:32.387Z,2368.12
2022-08-04T08:16:32.371Z,2626.88
2022-08-04T08:17:32.997Z,2289.38
2022-08-04T08:18:33.316Z,849.38
2022-08-04T08:19:33.770Z,410.62
2022-08-04T08:20:33.087Z,433.12
2022-08-04T08:21:32.318Z,540.00
2022-08-04T08:22:32.288Z,1698.75
2022-08-04T08:23:32.968Z,2705.62
2022-08-04T08:24:32.949Z,1906.88
2022-08-04T08:25:32.268Z,1012.50
2022-08-04T08:26:32.930Z,2767.50
2022-08-04T08:27:32.265Z,3127.50
2022-08-04T08:28:32.214Z,2418.75
2022-08-04T08:29:32.262Z,2086.88
2022-08-04T08:30:33.717Z,2868.75
2022-08-04T08:31:57.302Z,3723.75
2022-08-04T08:32:33.872Z,3465.00
2022-08-04T08:33:32.182Z,3493.12
2022-08-04T08:34:32.180Z,3110.62
2022-08-04T08:35:32.825Z,3453.75
2022-08-04T08:36:33.835Z,3330.00
2022-08-04T08:37:32.145Z,1940.62
2022-08-04T08:38:32.149Z,1800.00
2022-08-04T08:39:32.179Z,984.38
2022-08-04T08:40:40.654Z,973.12
2022-08-04T08:41:34.590Z,1040.62
2022-08-04T08:42:32.778Z,781.88
2022-08-04T08:44:05.091Z,765.00
2022-08-04T08:44:37.396Z,933.75
2022-08-04T08:45:33.998Z,945.00
2022-08-04T08:46:48.349Z,815.62
2022-08-04T08:48:05.927Z,821.25
2022-08-04T08:48:33.229Z,765.00
2022-08-04T08:50:02.710Z,630.00
2022-08-04T08:50:35.446Z,613.12
2022-08-04T08:51:31.990Z,697.50
2022-08-04T08:53:00.786Z,618.75
2022-08-04T08:53:34.454Z,641.25
2022-08-04T08:54:32.642Z,590.62
2022-08-04T08:55:31.964Z,545.62
2022-08-04T08:56:32.698Z,500.62
2022-08-04T08:57:32.000Z,405.00
2022-08-04T08:58:32.645Z,405.00
2022-08-04T08:59:31.982Z,438.75
2022-08-04T09:00:32.600Z,466.88
2022-08-04T09:01:32.643Z,540.00
2022-08-04T09:02:31.886Z,607.50
2022-08-04T09:03:33.549Z,641.25
2022-08-04T09:04:32.650Z,618.75
2022-08-04T09:05:32.539Z,590.62
2022-08-04T09:06:32.526Z,511.88
2022-08-04T09:07:32.527Z,472.50
2022-08-04T09:08:31.858Z,472.50
2022-08-04T09:09:32.520Z,483.75
2022-08-04T09:10:34.263Z,466.88
2022-08-04T09:11:32.491Z,438.75
2022-08-04T09:12:31.806Z,348.75
2022-08-04T09:13:31.784Z,466.88
2022-08-04T09:14:33.231Z,495.00
2022-08-04T09:15:32.444Z,444.38
2022-08-04T09:16:32.431Z,461.25
2022-08-04T09:17:32.401Z,478.12
2022-08-04T09:18:31.745Z,388.12
2022-08-04T09:19:38.457Z,427.50
2022-08-04T09:20:34.642Z,393.75
2022-08-04T09:21:31.703Z,427.50
2022-08-04T09:22:31.705Z,416.25
2022-08-04T09:23:32.352Z,405.00
2022-08-04T09:24:36.134Z,393.75
2022-08-04T09:25:32.333Z,388.12
2022-08-04T09:26:31.654Z,382.50
2022-08-04T09:27:32.326Z,382.50
2022-08-04T09:28:53.097Z,382.50
2022-08-04T09:29:32.759Z,382.50
2022-08-04T09:30:32.288Z,376.88
2022-08-04T09:31:49.068Z,371.25
2022-08-04T09:32:34.526Z,365.62
2022-08-04T09:33:44.933Z,376.88
2022-08-04T09:34:33.879Z,376.88
2022-08-04T09:35:32.236Z,388.12
2022-08-04T09:36:32.989Z,388.12
2022-08-04T09:37:31.561Z,393.75
2022-08-04T09:38:31.717Z,393.75
2022-08-04T09:39:32.305Z,393.75
2022-08-04T09:40:52.406Z,365.62
2022-08-04T09:41:49.564Z,360.00
2022-08-04T09:42:33.421Z,382.50
2022-08-04T09:43:58.786Z,315.00
2022-08-04T09:44:50.090Z,382.50
2022-08-04T09:45:43.233Z,399.38
2022-08-04T09:46:32.444Z,416.25
2022-08-04T09:47:40.058Z,444.38
2022-08-04T09:48:32.426Z,382.50
2022-08-04T09:49:32.104Z,393.75
2022-08-04T09:50:32.119Z,388.12
2022-08-04T09:51:58.143Z,365.62
2022-08-04T09:52:34.456Z,315.00
2022-08-04T09:53:31.395Z,354.38
2022-08-04T09:54:32.058Z,399.38
2022-08-04T09:55:32.056Z,421.88
2022-08-04T09:56:32.051Z,427.50
2022-08-04T09:57:32.055Z,433.12
2022-08-04T09:58:32.840Z,405.00
2022-08-04T09:59:32.013Z,399.38
2022-08-04T10:00:40.546Z,393.75
2022-08-04T10:01:32.300Z,388.12
2022-08-04T10:02:31.365Z,382.50
2022-08-04T10:03:32.070Z,371.25
2022-08-04T10:04:31.300Z,388.12
2022-08-04T10:05:31.953Z,393.75
2022-08-04T10:06:31.941Z,405.00
2022-08-04T10:07:31.271Z,393.75
2022-08-04T10:08:31.232Z,399.38
2022-08-04T10:09:31.243Z,393.75
2022-08-04T10:10:31.903Z,388.12
2022-08-04T10:11:31.231Z,382.50
2022-08-04T10:12:31.214Z,388.12
2022-08-04T10:13:31.874Z,399.38
2022-08-04T10:14:31.232Z,455.62
2022-08-04T10:15:31.197Z,495.00
2022-08-04T10:16:31.217Z,523.12
2022-08-04T10:17:31.176Z,450.00
2022-08-04T10:18:31.143Z,376.88
2022-08-04T10:19:31.825Z,320.62
2022-08-04T10:20:36.619Z,303.75
2022-08-04T10:21:32.901Z,343.12
2022-08-04T10:22:40.654Z,427.50
2022-08-04T10:23:32.083Z,500.62
2022-08-04T10:24:32.774Z,500.62
2022-08-04T10:25:42.624Z,483.75
2022-08-04T10:26:32.080Z,495.00
2022-08-04T10:27:31.174Z,506.25
2022-08-04T10:28:32.973Z,540.00
2022-08-04T10:29:31.042Z,551.25
2022-08-04T10:30:31.042Z,495.00
2022-08-04T10:31:31.033Z,562.50
2022-08-04T10:32:31.003Z,551.25
2022-08-04T10:33:31.031Z,601.88
2022-08-04T10:34:31.004Z,630.00
2022-08-04T10:35:30.996Z,686.25
2022-08-04T10:36:30.975Z,770.62
2022-08-04T10:37:59.489Z,950.62
2022-08-04T10:38:31.993Z,2570.62
2022-08-04T10:39:41.893Z,4370.62
2022-08-04T10:40:31.930Z,4651.88
2022-08-04T10:41:30.935Z,4708.12
2022-08-04T10:42:32.817Z,4561.88
2022-08-04T10:43:30.916Z,4933.12
2022-08-04T10:44:30.938Z,4910.62
2022-08-04T10:45:33.845Z,4280.62
2022-08-04T10:46:30.869Z,4809.38
2022-08-04T10:47:30.857Z,3256.88
2022-08-04T10:48:34.576Z,3279.38
2022-08-04T10:49:31.551Z,1411.88
2022-08-04T10:50:31.570Z,511.88
2022-08-04T10:51:30.811Z,630.00
2022-08-04T10:52:33.791Z,601.88
2022-08-04T10:53:32.230Z,523.12
2022-08-04T10:54:30.810Z,511.88
2022-08-04T10:56:05.749Z,489.38
2022-08-04T10:56:31.805Z,489.38
2022-08-04T10:57:30.773Z,500.62
2022-08-04T10:58:47.557Z,511.88
2022-08-04T10:59:31.783Z,511.88
2022-08-04T11:00:32.682Z,528.75
2022-08-04T11:02:02.110Z,472.50
2022-08-04T11:02:32.898Z,478.12
2022-08-04T11:03:30.707Z,455.62
2022-08-04T11:04:30.699Z,461.25
2022-08-04T11:05:30.686Z,461.25
2022-08-04T11:06:31.400Z,478.12
2022-08-04T11:07:31.345Z,483.75
2022-08-04T11:08:30.718Z,478.12
2022-08-04T11:09:31.350Z,450.00
2022-08-04T11:10:30.638Z,466.88
2022-08-04T11:11:30.628Z,495.00
2022-08-04T11:12:31.308Z,478.12
2022-08-04T11:13:30.716Z,438.75
2022-08-04T11:14:30.658Z,472.50
2022-08-04T11:15:32.019Z,466.88
2022-08-04T11:16:30.582Z,438.75
2022-08-04T11:17:30.593Z,421.88
2022-08-04T11:18:33.010Z,438.75
2022-08-04T11:19:44.811Z,500.62
2022-08-04T11:20:34.973Z,517.50
2022-08-04T11:21:31.464Z,500.62
2022-08-04T11:22:31.240Z,483.75
2022-08-04T11:23:31.191Z,478.12
2022-08-04T11:24:30.525Z,489.38
2022-08-04T11:25:31.195Z,444.38
2022-08-04T11:26:32.375Z,410.62
2022-08-04T11:27:31.164Z,382.50
2022-08-04T11:28:32.742Z,343.12
2022-08-04T11:29:30.481Z,315.00
2022-08-04T11:30:31.129Z,298.12
2022-08-04T11:31:30.437Z,286.88
2022-08-04T11:32:31.096Z,275.62
2022-08-04T11:33:30.408Z,264.38
2022-08-04T11:34:31.093Z,264.38
2022-08-04T11:35:31.097Z,253.12
2022-08-04T11:36:31.061Z,281.25
2022-08-04T11:37:30.481Z,309.38
2022-08-04T11:38:32.433Z,326.25
2022-08-04T11:39:32.962Z,371.25
2022-08-04T11:40:30.342Z,348.75
2022-08-04T11:41:31.014Z,326.25
2022-08-04T11:42:30.339Z,376.88
2022-08-04T11:44:00.761Z,376.88
2022-08-04T11:44:33.278Z,337.50
2022-08-04T11:45:32.733Z,315.00
2022-08-04T11:46:30.966Z,298.12
2022-08-04T11:47:30.954Z,292.50
2022-08-04T11:48:31.720Z,348.75
2022-08-04T11:49:30.926Z,360.00
2022-08-04T11:50:30.910Z,388.12
2022-08-04T11:51:30.913Z,382.50
2022-08-04T11:52:30.904Z,382.50
2022-08-04T11:53:36.934Z,388.12
2022-08-04T11:54:32.645Z,427.50
2022-08-04T11:55:30.875Z,455.62
2022-08-04T11:56:36.086Z,472.50
2022-08-04T11:57:35.832Z,483.75
2022-08-04T11:58:30.156Z,500.62
2022-08-04T11:59:31.579Z,433.12
2022-08-04T12:00:30.189Z,410.62
2022-08-04T12:01:30.179Z,416.25
2022-08-04T12:02:30.296Z,455.62
2022-08-04T12:03:30.141Z,450.00
2022-08-04T12:04:30.110Z,438.75
2022-08-04T12:05:37.268Z,433.12
2022-08-04T12:06:32.524Z,444.38
2022-08-04T12:07:31.624Z,466.88
2022-08-04T12:08:30.101Z,483.75
2022-08-04T12:09:30.731Z,483.75
2022-08-04T12:10:42.233Z,523.12
2022-08-04T12:11:31.713Z,534.38
2022-08-04T12:12:30.704Z,523.12
2022-08-04T12:13:30.694Z,511.88
2022-08-04T12:14:30.673Z,506.25
2022-08-04T12:15:30.679Z,489.38
2022-08-04T12:16:32.430Z,489.38
2022-08-04T12:17:34.470Z,478.12
2022-08-04T12:18:32.131Z,466.88
2022-08-04T12:19:34.935Z,438.75
2022-08-04T12:20:31.835Z,405.00
2022-08-04T12:21:32.863Z,399.38
2022-08-04T12:22:32.068Z,365.62
2022-08-04T12:23:29.968Z,354.38
2022-08-04T12:24:30.578Z,360.00
2022-08-04T12:25:30.576Z,371.25
2022-08-04T12:26:32.357Z,393.75
2022-08-04T12:27:31.000Z,376.88
2022-08-04T12:28:46.404Z,354.38
2022-08-04T12:29:30.864Z,303.75
2022-08-04T12:30:57.178Z,298.12
2022-08-04T12:31:32.325Z,303.75
2022-08-04T12:32:30.519Z,315.00
2022-08-04T12:34:03.841Z,309.38
2022-08-04T12:34:32.638Z,281.25
2022-08-04T12:35:30.477Z,258.75
2022-08-04T12:36:30.465Z,236.25
2022-08-04T12:37:32.303Z,247.50
2022-08-04T12:38:30.444Z,241.88
2022-08-04T12:39:30.501Z,225.00
2022-08-04T12:40:31.407Z,230.62
2022-08-04T12:41:30.407Z,219.38